createdAt,value
2017-06-12T00:00:04.920Z,0
2017-06-12T00:00:45.510Z,0
2017-06-12T00:01:26.103Z,0
2017-06-12T00:02:06.687Z,0
2017-06-12T00:02:47.282Z,0
2017-06-12T00:03:27.875Z,0
2017-06-12T00:04:08.474Z,0
2017-06-12T00:04:49.051Z,0
2017-06-12T00:05:29.697Z,0
2017-06-12T00:06:10.280Z,0
2017-06-12T00:06:50.885Z,0
2017-06-12T00:07:31.474Z,0
2017-06-12T00:08:12.067Z,0
2017-06-12T00:08:52.648Z,0
2017-06-12T00:09:33.253Z,0
2017-06-12T00:10:13.837Z,0
2017-06-12T00:10:54.427Z,0
2017-06-12T00:11:35.022Z,0
2017-06-12T00:12:15.622Z,0
2017-06-12T00:12:56.237Z,0
2017-06-12T00:13:36.924Z,0
2017-06-12T00:14:17.527Z,0
2017-06-12T00:14:58.163Z,0
2017-06-12T00:15:38.746Z,0
2017-06-12T00:16:19.344Z,0
2017-06-12T00:16:59.924Z,0
2017-06-12T00:17:40.506Z,0
2017-06-12T00:18:21.087Z,0
2017-06-12T00:19:01.684Z,0
2017-06-12T00:19:42.279Z,0
2017-06-12T00:20:22.913Z,0
2017-06-12T00:21:03.507Z,0
2017-06-12T00:21:44.104Z,0
2017-06-12T00:22:24.696Z,0
2017-06-12T00:23:05.293Z,0
2017-06-12T00:23:45.871Z,0
2017-06-12T00:24:26.463Z,0
2017-06-12T00:25:07.062Z,0
2017-06-12T00:25:47.648Z,0
2017-06-12T00:26:28.241Z,0
2017-06-12T00:27:08.806Z,0
2017-06-12T00:27:49.389Z,0
2017-06-12T00:28:29.981Z,0
2017-06-12T00:29:10.563Z,0
2017-06-12T00:29:51.172Z,0
2017-06-12T00:30:31.752Z,0
2017-06-12T00:31:12.349Z,0
2017-06-12T00:31:52.956Z,0
2017-06-12T00:32:33.537Z,0
2017-06-12T00:33:14.118Z,0
2017-06-12T00:33:54.699Z,0
2017-06-12T00:34:35.287Z,0
2017-06-12T00:35:16.110Z,0
2017-06-12T00:35:56.699Z,0
2017-06-12T00:36:37.291Z,0
2017-06-12T00:37:20.608Z,0
2017-06-12T00:38:01.188Z,0
2017-06-12T00:38:41.790Z,0
2017-06-12T00:39:22.360Z,0
2017-06-12T00:40:02.937Z,0
2017-06-12T00:40:43.576Z,0
2017-06-12T00:41:24.160Z,0
2017-06-12T00:42:04.768Z,0
2017-06-12T00:42:45.346Z,0
2017-06-12T00:43:25.947Z,0
2017-06-12T00:44:06.539Z,0
2017-06-12T00:44:47.123Z,0
2017-06-12T00:45:27.725Z,0
2017-06-12T00:46:08.330Z,0
2017-06-12T00:46:48.929Z,0
2017-06-12T00:47:29.528Z,0
2017-06-12T00:48:10.127Z,0
2017-06-12T00:48:50.713Z,0
2017-06-12T00:49:31.318Z,0
2017-06-12T00:50:11.915Z,0
2017-06-12T00:50:52.510Z,0
2017-06-12T00:51:33.144Z,0
2017-06-12T00:52:13.719Z,0
2017-06-12T00:52:54.315Z,0
2017-06-12T00:53:34.898Z,0
2017-06-12T00:54:15.533Z,0
2017-06-12T00:54:56.148Z,0
2017-06-12T00:55:36.732Z,0
2017-06-12T00:56:17.310Z,0
2017-06-12T00:56:57.893Z,0
2017-06-12T00:57:38.493Z,0
2017-06-12T00:58:19.085Z,0
2017-06-12T00:58:59.669Z,0
2017-06-12T00:59:40.313Z,0
2017-06-12T01:00:20.909Z,0
2017-06-12T01:01:01.535Z,0
2017-06-12T01:01:42.120Z,0
2017-06-12T01:02:22.714Z,0
2017-06-12T01:03:03.297Z,0
2017-06-12T01:03:43.877Z,0
2017-06-12T01:04:24.476Z,0
2017-06-12T01:05:05.060Z,0
2017-06-12T01:05:45.745Z,0
2017-06-12T01:06:26.323Z,0
2017-06-12T01:07:06.953Z,0
2017-06-12T01:07:47.566Z,0
2017-06-12T01:08:28.154Z,0
2017-06-12T01:09:08.743Z,0
2017-06-12T01:09:49.336Z,0
2017-06-12T01:10:29.922Z,0
2017-06-12T01:11:10.507Z,0
2017-06-12T01:11:51.093Z,0
2017-06-12T01:12:31.682Z,0
2017-06-12T01:13:12.274Z,0
2017-06-12T01:13:52.882Z,0
2017-06-12T01:14:33.462Z,0
2017-06-12T01:15:14.041Z,0
2017-06-12T01:15:54.636Z,0
2017-06-12T01:16:35.217Z,0
2017-06-12T01:17:15.819Z,0
2017-06-12T01:17:56.495Z,0
2017-06-12T01:18:37.101Z,0
2017-06-12T01:19:17.688Z,0
2017-06-12T01:19:58.308Z,0
2017-06-12T01:20:38.899Z,0
2017-06-12T01:21:19.491Z,0
2017-06-12T01:22:00.141Z,0
2017-06-12T01:22:40.730Z,0
2017-06-12T01:23:21.329Z,0
2017-06-12T01:24:01.909Z,0
2017-06-12T01:24:42.497Z,0
2017-06-12T01:25:23.104Z,0
2017-06-12T01:26:03.674Z,0
2017-06-12T01:26:44.274Z,0
2017-06-12T01:27:24.849Z,0
2017-06-12T01:28:05.441Z,0
2017-06-12T01:28:46.022Z,0
2017-06-12T01:29:26.651Z,0
2017-06-12T01:30:07.233Z,0
2017-06-12T01:30:47.870Z,0
2017-06-12T01:31:28.500Z,0
2017-06-12T01:32:09.084Z,0
2017-06-12T01:32:49.682Z,0
2017-06-12T01:33:30.273Z,0
2017-06-12T01:34:10.874Z,0
2017-06-12T01:34:51.577Z,0
2017-06-12T01:35:32.159Z,0
2017-06-12T01:36:12.743Z,0
2017-06-12T01:36:53.370Z,0
2017-06-12T01:37:33.972Z,0
2017-06-12T01:38:14.534Z,0
2017-06-12T01:38:55.124Z,0
2017-06-12T01:39:35.702Z,0
2017-06-12T01:40:16.288Z,0
2017-06-12T01:40:56.908Z,0
2017-06-12T01:41:37.505Z,0
2017-06-12T01:42:18.078Z,0
2017-06-12T01:42:58.680Z,0
2017-06-12T01:43:39.298Z,0
2017-06-12T01:44:19.887Z,0
2017-06-12T01:45:00.475Z,0
2017-06-12T01:45:41.058Z,0
2017-06-12T01:46:21.639Z,0
2017-06-12T01:47:02.226Z,0
2017-06-12T01:47:42.815Z,0
2017-06-12T01:48:23.395Z,0
2017-06-12T01:49:04.066Z,0
2017-06-12T01:49:44.641Z,0
2017-06-12T01:50:25.223Z,0
2017-06-12T01:51:05.809Z,0
2017-06-12T01:51:46.411Z,0
2017-06-12T01:52:27.032Z,0
2017-06-12T01:53:07.694Z,0
2017-06-12T01:53:48.327Z,0
2017-06-12T01:54:29.066Z,0
2017-06-12T01:55:09.663Z,0
2017-06-12T01:55:50.251Z,0
2017-06-12T01:56:30.831Z,0
2017-06-12T01:57:11.421Z,0
2017-06-12T01:57:52.028Z,0
2017-06-12T01:58:32.615Z,0
2017-06-12T01:59:13.209Z,0
2017-06-12T01:59:53.798Z,0
2017-06-12T02:00:34.384Z,0
2017-06-12T02:01:14.990Z,0
2017-06-12T02:01:55.573Z,0
2017-06-12T02:02:36.162Z,0
2017-06-12T02:03:16.754Z,0
2017-06-12T02:03:57.352Z,0
2017-06-12T02:04:37.957Z,0
2017-06-12T02:05:18.823Z,0
2017-06-12T02:05:59.452Z,0
2017-06-12T02:06:40.037Z,0
2017-06-12T02:07:20.649Z,0
2017-06-12T02:08:01.238Z,0
2017-06-12T02:08:41.822Z,0
2017-06-12T02:09:22.397Z,0
2017-06-12T02:10:02.991Z,0
2017-06-12T02:10:43.626Z,0
2017-06-12T02:11:24.216Z,0
2017-06-12T02:12:04.772Z,0
2017-06-12T02:12:45.380Z,0
2017-06-12T02:13:25.972Z,0
2017-06-12T02:14:06.563Z,0
2017-06-12T02:14:47.173Z,0
2017-06-12T02:15:27.787Z,0
2017-06-12T02:16:08.380Z,0
2017-06-12T02:16:48.978Z,0
2017-06-12T02:17:29.562Z,0
2017-06-12T02:18:10.160Z,0
2017-06-12T02:18:50.751Z,0
2017-06-12T02:19:31.379Z,0
2017-06-12T02:20:11.968Z,0
2017-06-12T02:20:52.550Z,0
2017-06-12T02:21:33.138Z,0
2017-06-12T02:22:13.737Z,0
2017-06-12T02:22:54.392Z,0
2017-06-12T02:23:34.980Z,0
2017-06-12T02:24:15.562Z,0
2017-06-12T02:24:56.146Z,0
2017-06-12T02:25:36.745Z,0
2017-06-12T02:26:17.330Z,0
2017-06-12T02:26:57.922Z,0
2017-06-12T02:27:38.550Z,0
2017-06-12T02:28:19.125Z,0
2017-06-12T02:28:59.724Z,0
2017-06-12T02:29:40.324Z,0
2017-06-12T02:30:20.901Z,0
2017-06-12T02:31:01.477Z,0
2017-06-12T02:31:42.055Z,0
2017-06-12T02:32:22.703Z,0
2017-06-12T02:33:03.287Z,0
2017-06-12T02:33:43.898Z,0
2017-06-12T02:34:24.475Z,0
2017-06-12T02:35:05.046Z,0
2017-06-12T02:35:45.645Z,0
2017-06-12T02:36:26.254Z,0
2017-06-12T02:37:06.837Z,0
2017-06-12T02:37:47.430Z,0
2017-06-12T02:38:28.041Z,0
2017-06-12T02:39:08.641Z,0
2017-06-12T02:39:49.223Z,0
2017-06-12T02:40:29.813Z,0
2017-06-12T02:41:10.409Z,0
2017-06-12T02:41:51.005Z,0
2017-06-12T02:42:31.576Z,0
2017-06-12T02:43:12.171Z,0
2017-06-12T02:43:52.761Z,0
2017-06-12T02:44:33.353Z,0
2017-06-12T02:45:13.933Z,0
2017-06-12T02:45:54.520Z,0
2017-06-12T02:46:35.106Z,0
2017-06-12T02:47:15.697Z,0
2017-06-12T02:47:56.313Z,0
2017-06-12T02:48:37.008Z,0
2017-06-12T02:49:17.532Z,0
2017-06-12T02:49:58.103Z,0
2017-06-12T02:50:38.686Z,0
2017-06-12T02:51:19.312Z,0
2017-06-12T02:51:59.901Z,0
2017-06-12T02:52:40.482Z,0
2017-06-12T02:53:21.095Z,0
2017-06-12T02:54:01.675Z,0
2017-06-12T02:54:42.261Z,0
2017-06-12T02:55:22.864Z,0
2017-06-12T02:56:03.446Z,0
2017-06-12T02:56:44.013Z,0
2017-06-12T02:57:24.596Z,0
2017-06-12T02:58:05.178Z,0
2017-06-12T02:58:45.769Z,0
2017-06-12T02:59:26.341Z,0
2017-06-12T03:00:06.931Z,0
2017-06-12T03:00:47.524Z,0
2017-06-12T03:01:28.103Z,0
2017-06-12T03:02:08.685Z,0
2017-06-12T03:02:49.278Z,0
2017-06-12T03:03:29.868Z,0
2017-06-12T03:04:10.473Z,0
2017-06-12T03:04:51.074Z,0
2017-06-12T03:05:31.666Z,0
2017-06-12T03:06:12.247Z,0
2017-06-12T03:06:52.841Z,0
2017-06-12T03:07:33.446Z,0
2017-06-12T03:08:14.032Z,0
2017-06-12T03:08:54.612Z,0
2017-06-12T03:09:35.212Z,0
2017-06-12T03:10:15.812Z,0
2017-06-12T03:10:56.385Z,0
2017-06-12T03:11:36.965Z,0
2017-06-12T03:12:17.544Z,0
2017-06-12T03:12:58.131Z,0
2017-06-12T03:13:38.700Z,0
2017-06-12T03:14:19.288Z,0
2017-06-12T03:14:59.872Z,0
2017-06-12T03:15:40.454Z,5
2017-06-12T03:16:21.036Z,5
2017-06-12T03:17:01.612Z,5
2017-06-12T03:17:42.192Z,5
2017-06-12T03:18:22.801Z,5
2017-06-12T03:19:03.426Z,5
2017-06-12T03:19:44.029Z,5
2017-06-12T03:20:24.606Z,5
2017-06-12T03:21:05.199Z,5
2017-06-12T03:21:45.786Z,5
2017-06-12T03:22:26.364Z,5
2017-06-12T03:23:06.959Z,5
2017-06-12T03:23:47.536Z,5
2017-06-12T03:24:28.122Z,5
2017-06-12T03:25:08.746Z,5
2017-06-12T03:25:49.344Z,5
2017-06-12T03:26:29.921Z,5
2017-06-12T03:27:10.492Z,5
2017-06-12T03:27:51.082Z,10
2017-06-12T03:28:31.675Z,10
2017-06-12T03:29:12.251Z,10
2017-06-12T03:29:52.855Z,10
2017-06-12T03:30:33.457Z,10
2017-06-12T03:31:14.040Z,15
2017-06-12T03:31:54.646Z,15
2017-06-12T03:32:35.225Z,15
2017-06-12T03:33:15.805Z,15
2017-06-12T03:33:56.385Z,15
2017-06-12T03:34:36.960Z,15
2017-06-12T03:35:17.546Z,15
2017-06-12T03:35:58.123Z,15
2017-06-12T03:36:38.707Z,15
2017-06-12T03:37:19.293Z,20
2017-06-12T03:37:59.934Z,15
2017-06-12T03:38:40.532Z,15
2017-06-12T03:39:21.138Z,15
2017-06-12T03:40:01.728Z,15
2017-06-12T03:40:42.333Z,15
2017-06-12T03:41:22.897Z,20
2017-06-12T03:42:03.498Z,20
2017-06-12T03:42:44.089Z,20
2017-06-12T03:43:24.675Z,25
2017-06-12T03:44:05.311Z,25
2017-06-12T03:44:45.900Z,25
2017-06-12T03:45:26.484Z,30
2017-06-12T03:46:07.063Z,30
2017-06-12T03:46:47.641Z,30
2017-06-12T03:47:28.223Z,30
2017-06-12T03:48:08.809Z,25
2017-06-12T03:48:49.392Z,25
2017-06-12T03:49:29.993Z,25
2017-06-12T03:50:10.600Z,25
2017-06-12T03:50:51.189Z,25
2017-06-12T03:51:31.785Z,20
2017-06-12T03:52:12.390Z,20
2017-06-12T03:52:53.052Z,20
2017-06-12T03:53:33.631Z,20
2017-06-12T03:54:14.225Z,20
2017-06-12T03:54:54.829Z,15
2017-06-12T03:55:35.412Z,15
2017-06-12T03:56:16.003Z,15
2017-06-12T03:56:56.589Z,15
2017-06-12T03:57:37.162Z,15
2017-06-12T03:58:17.772Z,15
2017-06-12T03:58:58.368Z,15
2017-06-12T03:59:38.961Z,20
2017-06-12T04:00:19.549Z,20
2017-06-12T04:01:00.148Z,20
2017-06-12T04:01:40.747Z,20
2017-06-12T04:02:21.329Z,20
2017-06-12T04:03:01.941Z,20
2017-06-12T04:03:42.521Z,20
2017-06-12T04:04:23.108Z,20
2017-06-12T04:05:03.698Z,20
2017-06-12T04:05:44.294Z,25
2017-06-12T04:06:24.877Z,25
2017-06-12T04:07:05.465Z,25
2017-06-12T04:07:46.051Z,30
2017-06-12T04:08:26.633Z,30
2017-06-12T04:09:07.219Z,35
2017-06-12T04:09:47.862Z,35
2017-06-12T04:10:28.459Z,40
2017-06-12T04:11:09.079Z,40
2017-06-12T04:11:49.664Z,40
2017-06-12T04:12:30.272Z,35
2017-06-12T04:13:10.868Z,35
2017-06-12T04:13:51.462Z,35
2017-06-12T04:14:32.041Z,35
2017-06-12T04:15:12.686Z,30
2017-06-12T04:15:53.265Z,30
2017-06-12T04:16:33.852Z,30
2017-06-12T04:17:14.437Z,30
2017-06-12T04:17:55.022Z,30
2017-06-12T04:18:35.618Z,30
2017-06-12T04:19:16.191Z,30
2017-06-12T04:19:56.776Z,25
2017-06-12T04:20:37.371Z,25
2017-06-12T04:21:17.953Z,25
2017-06-12T04:21:58.528Z,20
2017-06-12T04:22:39.150Z,20
2017-06-12T04:23:19.727Z,20
2017-06-12T04:24:00.328Z,15
2017-06-12T04:24:40.912Z,15
2017-06-12T04:25:21.522Z,15
2017-06-12T04:26:02.159Z,15
2017-06-12T04:26:42.742Z,15
2017-06-12T04:27:23.327Z,15
2017-06-12T04:28:03.923Z,10
2017-06-12T04:28:44.513Z,10
2017-06-12T04:29:25.105Z,15
2017-06-12T04:30:05.741Z,15
2017-06-12T04:30:46.331Z,15
2017-06-12T04:31:26.921Z,15
2017-06-12T04:32:07.519Z,10
2017-06-12T04:32:48.126Z,10
2017-06-12T04:33:28.735Z,10
2017-06-12T04:34:09.326Z,10
2017-06-12T04:34:49.925Z,10
2017-06-12T04:35:30.559Z,10
2017-06-12T04:36:11.144Z,10
2017-06-12T04:36:51.720Z,15
2017-06-12T04:37:32.327Z,15
2017-06-12T04:38:12.921Z,15
2017-06-12T04:38:53.505Z,15
2017-06-12T04:39:34.076Z,15
2017-06-12T04:40:14.681Z,15
2017-06-12T04:40:55.264Z,15
2017-06-12T04:41:35.842Z,15
2017-06-12T04:42:16.437Z,15
2017-06-12T04:42:57.017Z,20
2017-06-12T04:43:37.587Z,20
2017-06-12T04:44:18.186Z,15
2017-06-12T04:44:58.770Z,15
2017-06-12T04:45:39.356Z,15
2017-06-12T04:46:19.948Z,15
2017-06-12T04:47:00.573Z,20
2017-06-12T04:47:41.160Z,20
2017-06-12T04:48:21.748Z,20
2017-06-12T04:49:02.339Z,20
2017-06-12T04:49:42.921Z,25
2017-06-12T04:50:23.520Z,25
2017-06-12T04:51:04.106Z,25
2017-06-12T04:51:44.684Z,25
2017-06-12T04:52:25.278Z,25
2017-06-12T04:53:05.867Z,30
2017-06-12T04:53:46.462Z,30
2017-06-12T04:54:27.045Z,35
2017-06-12T04:55:07.627Z,45
2017-06-12T04:55:48.230Z,45
2017-06-12T04:56:28.825Z,45
2017-06-12T04:57:09.407Z,45
2017-06-12T04:57:49.988Z,45
2017-06-12T04:58:30.564Z,55
2017-06-12T04:59:11.171Z,60
2017-06-12T04:59:51.757Z,80
2017-06-12T05:00:32.336Z,85
2017-06-12T05:01:12.934Z,85
2017-06-12T05:01:53.516Z,85
2017-06-12T05:02:34.092Z,180
2017-06-12T05:03:14.669Z,50
2017-06-12T05:03:55.257Z,45
2017-06-12T05:04:35.835Z,40
2017-06-12T05:05:16.424Z,35
2017-06-12T05:05:57.015Z,35
2017-06-12T05:06:37.665Z,30
2017-06-12T05:07:18.520Z,30
2017-06-12T05:07:59.056Z,30
2017-06-12T05:08:39.643Z,25
2017-06-12T05:09:20.229Z,30
2017-06-12T05:10:00.829Z,30
2017-06-12T05:10:41.411Z,30
2017-06-12T05:11:22.043Z,30
2017-06-12T05:12:02.659Z,30
2017-06-12T05:12:43.249Z,30
2017-06-12T05:13:23.834Z,35
2017-06-12T05:14:04.479Z,35
2017-06-12T05:14:45.059Z,40
2017-06-12T05:15:25.642Z,40
2017-06-12T05:16:06.308Z,40
2017-06-12T05:16:46.862Z,45
2017-06-12T05:17:27.736Z,40
2017-06-12T05:18:08.324Z,40
2017-06-12T05:18:48.912Z,40
2017-06-12T05:19:29.490Z,45
2017-06-12T05:20:10.091Z,50
2017-06-12T05:20:50.686Z,55
2017-06-12T05:21:31.265Z,65
2017-06-12T05:22:11.858Z,80
2017-06-12T05:22:52.452Z,95
2017-06-12T05:23:33.057Z,105
2017-06-12T05:24:13.636Z,120
2017-06-12T05:24:54.229Z,140
2017-06-12T05:25:34.816Z,480
2017-06-12T05:26:15.431Z,220
2017-06-12T05:26:56.015Z,160
2017-06-12T05:27:36.806Z,75
2017-06-12T05:28:17.407Z,50
2017-06-12T05:28:58.018Z,45
2017-06-12T05:29:38.631Z,45
2017-06-12T05:30:19.296Z,45
2017-06-12T05:30:59.903Z,50
2017-06-12T05:31:40.511Z,60
2017-06-12T05:32:21.071Z,80
2017-06-12T05:33:01.671Z,110
2017-06-12T05:33:42.256Z,175
2017-06-12T05:34:22.836Z,785
2017-06-12T05:35:03.510Z,225
2017-06-12T05:35:44.152Z,195
2017-06-12T05:36:24.754Z,355
2017-06-12T05:37:05.346Z,215
2017-06-12T05:37:45.937Z,295
2017-06-12T05:38:26.519Z,155
2017-06-12T05:39:07.133Z,125
2017-06-12T05:39:47.756Z,105
2017-06-12T05:40:28.376Z,95
2017-06-12T05:41:08.962Z,80
2017-06-12T05:41:49.550Z,75
2017-06-12T05:42:30.141Z,70
2017-06-12T05:43:10.759Z,60
2017-06-12T05:43:51.362Z,50
2017-06-12T05:44:31.978Z,50
2017-06-12T05:45:12.547Z,45
2017-06-12T05:45:53.123Z,45
2017-06-12T05:46:33.713Z,45
2017-06-12T05:47:14.336Z,45
2017-06-12T05:47:54.933Z,45
2017-06-12T05:48:35.546Z,55
2017-06-12T05:49:16.141Z,60
2017-06-12T05:49:56.743Z,60
2017-06-12T05:50:37.333Z,60
2017-06-12T05:51:17.937Z,65
2017-06-12T05:51:58.544Z,65
2017-06-12T05:52:39.131Z,65
2017-06-12T05:53:19.741Z,65
2017-06-12T05:54:01.281Z,85
2017-06-12T05:54:41.863Z,85
2017-06-12T05:55:23.217Z,100
2017-06-12T05:56:05.160Z,105
2017-06-12T05:56:45.680Z,105
2017-06-12T05:57:28.681Z,95
2017-06-12T05:58:09.281Z,75
2017-06-12T05:58:49.870Z,70
2017-06-12T05:59:30.453Z,55
2017-06-12T06:00:11.099Z,50
2017-06-12T06:00:52.650Z,45
2017-06-12T06:01:33.224Z,45
2017-06-12T06:02:13.833Z,45
2017-06-12T06:02:54.677Z,45
2017-06-12T06:03:35.267Z,50
2017-06-12T06:04:17.354Z,55
2017-06-12T06:04:57.958Z,55
2017-06-12T06:05:38.582Z,50
2017-06-12T06:06:19.197Z,45
2017-06-12T06:06:59.779Z,45
2017-06-12T06:07:40.373Z,50
2017-06-12T06:08:20.981Z,50
2017-06-12T06:09:01.936Z,55
2017-06-12T06:09:42.362Z,55
2017-06-12T06:10:22.945Z,70
2017-06-12T06:11:03.963Z,80
2017-06-12T06:11:45.627Z,90
2017-06-12T06:12:26.231Z,110
2017-06-12T06:13:06.824Z,135
2017-06-12T06:13:47.437Z,160
2017-06-12T06:14:28.028Z,170
2017-06-12T06:15:08.609Z,110
2017-06-12T06:15:49.227Z,110
2017-06-12T06:16:32.209Z,125
2017-06-12T06:17:13.344Z,125
2017-06-12T06:17:53.931Z,125
2017-06-12T06:18:34.516Z,130
2017-06-12T06:19:15.165Z,120
2017-06-12T06:19:57.368Z,100
2017-06-12T06:20:41.643Z,95
2017-06-12T06:21:22.237Z,85
2017-06-12T06:22:03.165Z,80
2017-06-12T06:22:45.895Z,80
2017-06-12T06:23:28.724Z,75
2017-06-12T06:24:12.570Z,80
2017-06-12T06:24:54.701Z,80
2017-06-12T06:25:35.812Z,75
2017-06-12T06:26:16.743Z,70
2017-06-12T06:26:57.505Z,70
2017-06-12T06:27:38.156Z,70
2017-06-12T06:28:19.058Z,75
2017-06-12T06:28:59.936Z,75
2017-06-12T06:29:40.826Z,75
2017-06-12T06:30:21.509Z,80
2017-06-12T06:31:02.445Z,90
2017-06-12T06:31:43.072Z,100
2017-06-12T06:32:23.641Z,115
2017-06-12T06:33:04.220Z,115
2017-06-12T06:33:44.823Z,100
2017-06-12T06:34:25.412Z,110
2017-06-12T06:35:05.997Z,110
2017-06-12T06:35:46.607Z,105
2017-06-12T06:36:27.213Z,110
2017-06-12T06:37:07.997Z,105
2017-06-12T06:37:48.582Z,100
2017-06-12T06:38:29.167Z,100
2017-06-12T06:39:09.757Z,100
2017-06-12T06:39:50.361Z,100
2017-06-12T06:40:30.956Z,100
2017-06-12T06:41:11.533Z,100
2017-06-12T06:41:52.116Z,130
2017-06-12T06:42:32.729Z,150
2017-06-12T06:43:13.362Z,180
2017-06-12T06:43:53.955Z,160
2017-06-12T06:44:34.538Z,530
2017-06-12T06:45:15.181Z,160
2017-06-12T06:45:55.803Z,170
2017-06-12T06:46:36.376Z,195
2017-06-12T06:47:16.963Z,240
2017-06-12T06:47:57.557Z,240
2017-06-12T06:48:38.178Z,275
2017-06-12T06:49:18.806Z,215
2017-06-12T06:49:59.399Z,275
2017-06-12T06:50:39.996Z,225
2017-06-12T06:51:21.878Z,275
2017-06-12T06:52:03.919Z,235
2017-06-12T06:52:45.329Z,270
2017-06-12T06:53:25.945Z,590
2017-06-12T06:54:06.556Z,265
2017-06-12T06:54:51.582Z,385
2017-06-12T06:55:32.340Z,375
2017-06-12T06:56:12.932Z,1515
2017-06-12T06:57:02.307Z,585
2017-06-12T06:57:44.492Z,255
2017-06-12T06:58:25.101Z,260
2017-06-12T06:59:05.695Z,1975
2017-06-12T06:59:46.278Z,1295
2017-06-12T07:00:26.893Z,350
2017-06-12T07:01:07.474Z,315
2017-06-12T07:01:48.055Z,1435
2017-06-12T07:02:28.722Z,435
2017-06-12T07:03:09.311Z,265
2017-06-12T07:03:49.902Z,345
2017-06-12T07:04:30.494Z,375
2017-06-12T07:05:11.071Z,985
2017-06-12T07:05:51.662Z,335
2017-06-12T07:06:32.780Z,655
2017-06-12T07:07:13.376Z,260
2017-06-12T07:07:53.967Z,195
2017-06-12T07:08:34.584Z,210
2017-06-12T07:09:15.170Z,205
2017-06-12T07:09:55.777Z,240
2017-06-12T07:10:36.381Z,200
2017-06-12T07:11:16.998Z,195
2017-06-12T07:11:57.597Z,250
2017-06-12T07:12:38.187Z,370
2017-06-12T07:13:18.777Z,235
2017-06-12T07:13:59.501Z,215
2017-06-12T07:14:40.098Z,225
2017-06-12T07:15:20.696Z,385
2017-06-12T07:16:01.313Z,615
2017-06-12T07:16:42.024Z,670
2017-06-12T07:17:22.614Z,335
2017-06-12T07:18:03.196Z,620
2017-06-12T07:18:43.799Z,675
2017-06-12T07:19:24.428Z,585
2017-06-12T07:20:05.400Z,650
2017-06-12T07:20:46.003Z,645
2017-06-12T07:21:26.595Z,625
2017-06-12T07:22:07.198Z,675
2017-06-12T07:22:47.804Z,385
2017-06-12T07:23:28.408Z,530
2017-06-12T07:24:09.070Z,335
2017-06-12T07:24:49.660Z,615
2017-06-12T07:25:30.281Z,615
2017-06-12T07:26:10.862Z,600
2017-06-12T07:26:51.462Z,585
2017-06-12T07:27:32.054Z,425
2017-06-12T07:28:12.633Z,300
2017-06-12T07:28:53.260Z,605
2017-06-12T07:29:33.851Z,250
2017-06-12T07:30:14.442Z,250
2017-06-12T07:30:55.045Z,520
2017-06-12T07:31:35.627Z,640
2017-06-12T07:32:16.224Z,625
2017-06-12T07:32:56.825Z,610
2017-06-12T07:33:37.454Z,595
2017-06-12T07:34:18.078Z,580
2017-06-12T07:34:58.724Z,585
2017-06-12T07:35:39.377Z,560
2017-06-12T07:36:19.963Z,405
2017-06-12T07:37:00.562Z,555
2017-06-12T07:37:41.187Z,570
2017-06-12T07:38:21.769Z,615
2017-06-12T07:39:02.373Z,600
2017-06-12T07:39:42.965Z,530
2017-06-12T07:40:23.569Z,570
2017-06-12T07:41:04.192Z,590
2017-06-12T07:41:44.804Z,260
2017-06-12T07:42:25.418Z,275
2017-06-12T07:43:06.055Z,350
2017-06-12T07:43:46.619Z,210
2017-06-12T07:44:27.208Z,585
2017-06-12T07:45:07.833Z,585
2017-06-12T07:45:48.459Z,570
2017-06-12T07:46:29.106Z,550
2017-06-12T07:47:09.699Z,590
2017-06-12T07:47:50.306Z,580
2017-06-12T07:48:30.904Z,575
2017-06-12T07:49:11.497Z,585
2017-06-12T07:49:52.078Z,580
2017-06-12T07:50:32.699Z,575
2017-06-12T07:51:13.280Z,270
2017-06-12T07:51:53.867Z,210
2017-06-12T07:52:34.514Z,615
2017-06-12T07:53:15.128Z,590
2017-06-12T07:53:55.714Z,585
2017-06-12T07:54:36.315Z,560
2017-06-12T07:55:16.888Z,550
2017-06-12T07:55:57.504Z,540
2017-06-12T07:56:38.111Z,540
2017-06-12T07:57:18.731Z,545
2017-06-12T07:57:59.334Z,300
2017-06-12T07:58:39.930Z,225
2017-06-12T07:59:20.532Z,475
2017-06-12T08:00:01.180Z,190
2017-06-12T08:00:41.789Z,175
2017-06-12T08:01:22.387Z,255
2017-06-12T08:02:02.971Z,415
2017-06-12T08:02:43.632Z,280
2017-06-12T08:03:24.207Z,225
2017-06-12T08:04:04.811Z,405
2017-06-12T08:04:45.409Z,390
2017-06-12T08:05:26.005Z,380
2017-06-12T08:06:06.603Z,375
2017-06-12T08:06:47.216Z,370
2017-06-12T08:07:27.808Z,380
2017-06-12T08:08:08.400Z,375
2017-06-12T08:08:48.992Z,365
2017-06-12T08:09:29.589Z,370
2017-06-12T08:10:10.175Z,365
2017-06-12T08:10:50.757Z,365
2017-06-12T08:11:31.356Z,355
2017-06-12T08:12:11.984Z,340
2017-06-12T08:12:52.570Z,335
2017-06-12T08:13:33.184Z,335
2017-06-12T08:14:13.773Z,335
2017-06-12T08:14:54.362Z,340
2017-06-12T08:15:34.967Z,175
2017-06-12T08:16:15.551Z,160
2017-06-12T08:16:56.158Z,150
2017-06-12T08:17:36.746Z,155
2017-06-12T08:18:18.308Z,280
2017-06-12T08:18:58.969Z,340
2017-06-12T08:19:39.619Z,350
2017-06-12T08:20:20.234Z,245
2017-06-12T08:21:00.832Z,370
2017-06-12T08:21:41.452Z,355
2017-06-12T08:22:22.080Z,345
2017-06-12T08:23:02.684Z,315
2017-06-12T08:23:43.271Z,320
2017-06-12T08:24:23.877Z,310
2017-06-12T08:25:04.481Z,305
2017-06-12T08:25:45.524Z,290
2017-06-12T08:26:26.143Z,285
2017-06-12T08:27:06.757Z,295
2017-06-12T08:27:47.363Z,290
2017-06-12T08:28:27.983Z,305
2017-06-12T08:29:08.654Z,240
2017-06-12T08:29:49.268Z,170
2017-06-12T08:30:29.859Z,160
2017-06-12T08:31:10.454Z,150
2017-06-12T08:31:51.038Z,135
2017-06-12T08:32:31.653Z,260
2017-06-12T08:33:12.226Z,270
2017-06-12T08:33:52.815Z,270
2017-06-12T08:34:33.413Z,240
2017-06-12T08:35:14.058Z,230
2017-06-12T08:35:54.658Z,230
2017-06-12T08:36:35.246Z,230
2017-06-12T08:37:15.844Z,230
2017-06-12T08:37:56.474Z,230
2017-06-12T08:38:37.063Z,225
2017-06-12T08:39:17.744Z,200
2017-06-12T08:39:58.344Z,215
2017-06-12T08:40:39.450Z,210
2017-06-12T08:41:20.163Z,210
2017-06-12T08:42:00.750Z,210
2017-06-12T08:42:41.429Z,220
2017-06-12T08:43:21.947Z,210
2017-06-12T08:44:02.529Z,210
2017-06-12T08:44:43.178Z,210
2017-06-12T08:45:23.784Z,210
2017-06-12T08:46:04.375Z,205
2017-06-12T08:46:44.957Z,205
2017-06-12T08:47:25.706Z,205
2017-06-12T08:48:06.292Z,195
2017-06-12T08:48:47.167Z,105
2017-06-12T08:49:27.758Z,185
2017-06-12T08:50:08.339Z,190
2017-06-12T08:50:48.929Z,205
2017-06-12T08:51:29.518Z,205
2017-06-12T08:52:10.125Z,155
2017-06-12T08:52:50.762Z,190
2017-06-12T08:53:31.354Z,190
2017-06-12T08:54:11.990Z,190
2017-06-12T08:54:52.573Z,200
2017-06-12T08:55:33.442Z,125
2017-06-12T08:56:16.355Z,190
2017-06-12T08:56:56.956Z,180
2017-06-12T08:57:37.703Z,185
2017-06-12T08:58:18.264Z,125
2017-06-12T08:58:58.855Z,180
2017-06-12T08:59:39.446Z,180
2017-06-12T09:00:20.039Z,185
2017-06-12T09:01:00.626Z,165
2017-06-12T09:01:41.221Z,180
2017-06-12T09:02:21.855Z,185
2017-06-12T09:03:02.454Z,185
2017-06-12T09:03:43.097Z,185
2017-06-12T09:04:23.688Z,180
2017-06-12T09:05:04.289Z,180
2017-06-12T09:05:45.276Z,190
2017-06-12T09:06:25.804Z,195
2017-06-12T09:07:06.399Z,185
2017-06-12T09:07:47.046Z,195
2017-06-12T09:08:27.636Z,195
2017-06-12T09:09:08.226Z,195
2017-06-12T09:09:48.830Z,190
2017-06-12T09:10:29.414Z,185
2017-06-12T09:11:10.016Z,185
2017-06-12T09:11:50.629Z,145
2017-06-12T09:12:31.249Z,180
2017-06-12T09:13:11.841Z,175
2017-06-12T09:13:52.435Z,175
2017-06-12T09:14:33.067Z,185
2017-06-12T09:15:13.674Z,140
2017-06-12T09:15:54.254Z,150
2017-06-12T09:16:34.842Z,150
2017-06-12T09:17:15.426Z,155
2017-06-12T09:17:56.023Z,190
2017-06-12T09:18:36.630Z,195
2017-06-12T09:19:17.216Z,200
2017-06-12T09:19:57.800Z,190
2017-06-12T09:20:38.401Z,205
2017-06-12T09:21:19.036Z,210
2017-06-12T09:21:59.738Z,210
2017-06-12T09:22:40.328Z,205
2017-06-12T09:23:20.940Z,195
2017-06-12T09:24:01.532Z,180
2017-06-12T09:24:42.112Z,175
2017-06-12T09:25:22.714Z,165
2017-06-12T09:26:03.309Z,170
2017-06-12T09:26:43.893Z,175
2017-06-12T09:27:24.488Z,160
2017-06-12T09:28:05.278Z,170
2017-06-12T09:28:45.863Z,165
2017-06-12T09:29:26.467Z,125
2017-06-12T09:30:07.077Z,120
2017-06-12T09:30:47.675Z,115
2017-06-12T09:31:28.264Z,110
2017-06-12T09:32:08.894Z,130
2017-06-12T09:32:49.503Z,140
2017-06-12T09:33:30.204Z,140
2017-06-12T09:34:10.838Z,110
2017-06-12T09:34:51.447Z,105
2017-06-12T09:35:32.071Z,105
2017-06-12T09:36:12.708Z,105
2017-06-12T09:36:53.282Z,105
2017-06-12T09:37:33.872Z,150
2017-06-12T09:38:15.224Z,110
2017-06-12T09:38:56.978Z,105
2017-06-12T09:39:39.358Z,100